createdAt,value
2018-06-05T00:02:24.204Z,26.15
2018-06-05T00:04:57.553Z,24.92
2018-06-05T00:07:29.785Z,24.17
2018-06-05T00:10:02.375Z,27.55
2018-06-05T00:12:35.653Z,27.17
2018-06-05T00:15:08.747Z,27.10
2018-06-05T00:17:38.684Z,25.35
2018-06-05T00:20:11.796Z,28.40
2018-06-05T00:22:44.726Z,27.45
2018-06-05T00:25:16.313Z,28.77
2018-06-05T00:27:49.595Z,32.22
2018-06-05T00:30:23.298Z,31.30
2018-06-05T00:32:56.410Z,29.75
2018-06-05T00:35:28.354Z,30.52
2018-06-05T00:38:02.901Z,29.23
2018-06-05T00:40:36.472Z,27.37
2018-06-05T00:43:11.169Z,27.23
2018-06-05T00:45:56.766Z,26.75
2018-06-05T00:48:30.273Z,29.83
2018-06-05T00:51:03.536Z,27.48
2018-06-05T00:53:35.306Z,27.15
2018-06-05T00:56:06.240Z,29.23
2018-06-05T00:58:37.416Z,29.73
2018-06-05T01:01:10.335Z,30.88
2018-06-05T01:03:43.273Z,35.90
2018-06-05T01:06:16.477Z,33.22
2018-06-05T01:08:49.424Z,28.15
2018-06-05T01:11:21.867Z,27.23
2018-06-05T01:13:53.485Z,29.40
2018-06-05T01:16:23.987Z,27.70
2018-06-05T01:18:57.583Z,27.95
2018-06-05T01:21:29.567Z,29.15
2018-06-05T01:24:02.997Z,26.25
2018-06-05T01:26:37.600Z,24.75
2018-06-05T01:29:12.488Z,21.55
2018-06-05T01:31:47.058Z,24.00
2018-06-05T01:34:22.197Z,23.48
2018-06-05T01:36:54.043Z,23.25
2018-06-05T01:39:27.102Z,25.48
2018-06-05T01:41:59.741Z,24.10
2018-06-05T01:44:30.169Z,26.60
2018-06-05T01:47:03.454Z,23.33
2018-06-05T01:49:43.389Z,24.12
2018-06-05T01:52:14.771Z,22.50
2018-06-05T01:54:46.323Z,23.45
2018-06-05T01:57:16.727Z,25.58
2018-06-05T01:59:48.382Z,26.75
2018-06-05T02:02:21.526Z,22.27
2018-06-05T02:04:53.072Z,25.08
2018-06-05T02:07:26.385Z,23.35
2018-06-05T02:09:59.527Z,23.62
2018-06-05T02:12:31.862Z,25.45
2018-06-05T02:15:03.511Z,24.48
2018-06-05T02:17:33.605Z,25.15
2018-06-05T02:20:06.615Z,25.23
2018-06-05T02:22:41.203Z,27.10
2018-06-05T02:25:15.905Z,22.67
2018-06-05T02:27:49.049Z,21.10
2018-06-05T02:30:20.005Z,20.35
2018-06-05T02:32:54.908Z,21.50
2018-06-05T02:35:28.046Z,21.15
2018-06-05T02:37:59.926Z,21.60
2018-06-05T02:40:32.052Z,21.80
2018-06-05T02:43:02.993Z,16.87
2018-06-05T02:45:38.915Z,18.65
2018-06-05T02:48:12.101Z,18.73
2018-06-05T02:50:43.602Z,17.73
2018-06-05T02:53:17.005Z,19.48
2018-06-05T02:55:49.907Z,18.15
2018-06-05T02:58:23.350Z,19.17
2018-06-05T03:00:53.607Z,17.42
2018-06-05T03:03:25.653Z,17.37
2018-06-05T03:05:57.773Z,18.33
2018-06-05T03:08:28.394Z,17.27
2018-06-05T03:10:59.058Z,16.70
2018-06-05T03:13:29.687Z,16.10
2018-06-05T03:16:02.964Z,15.57
2018-06-05T03:18:34.502Z,19.67
2018-06-05T03:21:09.582Z,16.90
2018-06-05T03:23:44.432Z,16.20
2018-06-05T03:26:16.653Z,15.27
2018-06-05T03:28:49.794Z,16.98
2018-06-05T03:31:22.855Z,15.70
2018-06-05T03:33:55.822Z,14.87
2018-06-05T03:36:30.604Z,15.05
2018-06-05T03:39:04.248Z,17.12
2018-06-05T03:41:38.671Z,16.62
2018-06-05T03:44:11.993Z,18.27
2018-06-05T03:46:46.564Z,16.42
2018-06-05T03:49:19.629Z,17.60
2018-06-05T03:51:53.120Z,16.37
2018-06-05T03:54:24.897Z,15.73
2018-06-05T03:56:59.869Z,16.73
2018-06-05T03:59:30.150Z,16.20
2018-06-05T04:02:03.373Z,18.60
2018-06-05T04:04:35.258Z,17.25
2018-06-05T04:07:06.848Z,16.37
2018-06-05T04:09:37.982Z,16.15
2018-06-05T04:12:10.161Z,17.12
2018-06-05T04:14:44.298Z,17.40
2018-06-05T04:17:15.845Z,15.43
2018-06-05T04:19:48.904Z,15.70
2018-06-05T04:22:22.118Z,14.93
2018-06-05T04:24:56.734Z,15.95
2018-06-05T04:27:31.433Z,18.17
2018-06-05T04:30:05.267Z,17.98
2018-06-05T04:32:38.364Z,17.87
2018-06-05T04:35:11.343Z,17.10
2018-06-05T04:37:44.623Z,17.00
2018-06-05T04:40:17.743Z,17.92
2018-06-05T04:42:51.336Z,17.90
2018-06-05T04:45:22.798Z,19.10
2018-06-05T04:47:54.953Z,16.80
2018-06-05T04:50:29.659Z,17.02
2018-06-05T04:53:02.334Z,17.85
2018-06-05T04:55:32.275Z,18.85
2018-06-05T04:58:05.317Z,18.90
2018-06-05T05:00:39.884Z,19.75
2018-06-05T05:03:10.208Z,16.92
2018-06-05T05:05:42.437Z,16.60
2018-06-05T05:08:17.187Z,16.87
2018-06-05T05:10:52.052Z,16.58
2018-06-05T05:13:22.956Z,16.10
2018-06-05T05:15:57.414Z,16.48
2018-06-05T05:18:28.938Z,16.10
2018-06-05T05:21:00.589Z,17.10
2018-06-05T05:23:33.650Z,17.25
2018-06-05T05:26:05.422Z,18.00
2018-06-05T05:28:38.599Z,18.48
2018-06-05T05:31:11.567Z,18.70
2018-06-05T05:33:46.318Z,17.80
2018-06-05T05:36:20.957Z,17.30
2018-06-05T05:38:54.147Z,15.07
2018-06-05T05:41:28.833Z,17.00
2018-06-05T05:44:00.377Z,16.80
2018-06-05T05:46:32.029Z,15.82
2018-06-05T05:49:06.916Z,17.27
2018-06-05T05:51:37.040Z,16.30
2018-06-05T05:54:08.516Z,16.20
2018-06-05T05:56:41.556Z,16.40
2018-06-05T05:59:14.999Z,15.48
2018-06-05T06:01:45.001Z,19.55
2018-06-05T06:04:18.616Z,16.85
2018-06-05T06:06:51.533Z,17.12
2018-06-05T06:09:24.779Z,15.70
2018-06-05T06:11:56.532Z,15.07
2018-06-05T06:14:31.181Z,14.32
2018-06-05T06:17:03.241Z,15.20
2018-06-05T06:19:36.852Z,15.50
2018-06-05T06:22:10.134Z,17.35
2018-06-05T06:24:43.205Z,18.20
2018-06-05T06:27:17.810Z,16.27
2018-06-05T06:29:52.762Z,16.62
2018-06-05T06:32:26.077Z,17.02
2018-06-05T06:34:59.100Z,17.02
2018-06-05T06:37:32.625Z,17.65
2018-06-05T06:40:06.150Z,16.15
2018-06-05T06:42:39.892Z,15.65
2018-06-05T06:45:14.738Z,16.42
2018-06-05T06:47:46.123Z,18.10
2018-06-05T06:50:17.974Z,17.45
2018-06-05T06:52:51.331Z,18.15
2018-06-05T06:55:24.155Z,16.15
2018-06-05T06:57:58.805Z,16.30
2018-06-05T07:00:32.068Z,16.83
2018-06-05T07:03:05.550Z,15.90
2018-06-05T07:05:40.517Z,14.15
2018-06-05T07:08:13.366Z,15.82
2018-06-05T07:10:47.128Z,13.30
2018-06-05T07:13:20.096Z,15.50
2018-06-05T07:15:54.633Z,14.25
2018-06-05T07:18:27.618Z,16.00
2018-06-05T07:21:02.577Z,17.37
2018-06-05T07:23:39.607Z,15.52
2018-06-05T07:26:18.984Z,15.43
2018-06-05T07:28:52.770Z,13.35
2018-06-05T07:31:23.481Z,12.10
2018-06-05T07:33:55.174Z,11.05
2018-06-05T07:36:28.608Z,12.23
2018-06-05T07:39:01.765Z,11.68
2018-06-05T07:41:36.733Z,10.68
2018-06-05T07:44:08.253Z,11.15
2018-06-05T07:46:41.422Z,12.37
2018-06-05T07:49:11.540Z,11.98
2018-06-05T07:51:43.075Z,12.25
2018-06-05T07:54:16.064Z,12.77
2018-06-05T07:56:49.202Z,11.18
2018-06-05T07:59:22.115Z,11.40
2018-06-05T08:01:55.080Z,12.35
2018-06-05T08:04:28.045Z,12.52
2018-06-05T08:07:01.265Z,11.93
2018-06-05T08:09:36.039Z,14.38
2018-06-05T08:12:05.979Z,14.38
2018-06-05T08:14:40.792Z,15.05
2018-06-05T08:17:14.469Z,15.15
2018-06-05T08:19:49.013Z,14.35
2018-06-05T08:22:23.576Z,13.55
2018-06-05T08:24:58.343Z,14.15
2018-06-05T08:27:32.295Z,16.27
2018-06-05T08:30:02.524Z,14.50
2018-06-05T08:32:34.343Z,14.20
2018-06-05T08:35:05.814Z,12.15
2018-06-05T08:37:37.337Z,13.38
2018-06-05T08:40:11.687Z,11.00
2018-06-05T08:42:44.683Z,13.50
2018-06-05T08:45:15.388Z,10.60
2018-06-05T08:47:48.291Z,12.10
2018-06-05T08:50:19.648Z,12.60
2018-06-05T08:52:52.668Z,12.82
2018-06-05T08:55:24.821Z,10.70
2018-06-05T08:57:56.476Z,12.68
2018-06-05T09:00:28.481Z,12.20
2018-06-05T09:02:59.993Z,11.10
2018-06-05T09:05:33.317Z,11.05
2018-06-05T09:08:04.944Z,12.10
2018-06-05T09:10:35.046Z,11.18
2018-06-05T09:13:08.534Z,11.73
2018-06-05T09:15:42.038Z,11.27
2018-06-05T09:18:15.294Z,11.23
2018-06-05T09:20:48.735Z,9.75
2018-06-05T09:23:20.454Z,10.70
2018-06-05T09:25:55.013Z,9.15
2018-06-05T09:28:26.593Z,9.55
2018-06-05T09:31:01.103Z,9.57
2018-06-05T09:33:34.191Z,10.23
2018-06-05T09:36:04.255Z,10.73
2018-06-05T09:38:34.586Z,9.35
2018-06-05T09:41:08.328Z,8.10
2018-06-05T09:43:41.660Z,10.07
2018-06-05T09:46:16.122Z,11.60
2018-06-05T09:48:49.232Z,10.10
2018-06-05T09:51:22.071Z,12.82
2018-06-05T09:53:56.661Z,9.73
2018-06-05T09:56:29.668Z,10.70
2018-06-05T09:59:01.121Z,10.95
2018-06-05T10:01:31.578Z,13.65
2018-06-05T10:04:06.104Z,11.15
2018-06-05T10:06:44.467Z,10.77
2018-06-05T10:09:14.566Z,10.48
2018-06-05T10:11:47.619Z,14.00
2018-06-05T10:14:19.332Z,11.90
2018-06-05T10:16:51.407Z,10.98
2018-06-05T10:19:26.443Z,12.02
2018-06-05T10:21:59.612Z,12.60
2018-06-05T10:24:32.620Z,11.15
2018-06-05T10:27:05.784Z,13.20
2018-06-05T10:29:39.145Z,11.15
2018-06-05T10:32:13.834Z,12.73
2018-06-05T10:34:46.750Z,11.50
2018-06-05T10:37:18.868Z,12.68
2018-06-05T10:39:50.592Z,12.27
2018-06-05T10:42:24.977Z,12.25
2018-06-05T10:44:54.938Z,14.57
2018-06-05T10:47:26.581Z,13.07
2018-06-05T10:49:57.001Z,12.50
2018-06-05T10:52:29.935Z,12.07
2018-06-05T10:55:04.482Z,14.02
2018-06-05T10:57:35.872Z,15.15
2018-06-05T11:00:08.882Z,14.50
2018-06-05T11:02:41.940Z,12.98
2018-06-05T11:05:16.233Z,14.73
2018-06-05T11:07:49.450Z,13.43
2018-06-05T11:10:23.999Z,11.70
2018-06-05T11:12:55.544Z,12.82
2018-06-05T11:15:28.407Z,12.77
2018-06-05T11:18:00.065Z,12.68
2018-06-05T11:20:31.677Z,13.10
2018-06-05T11:23:05.496Z,14.23
2018-06-05T11:25:38.594Z,11.25
2018-06-05T11:28:11.648Z,14.10
2018-06-05T11:30:43.027Z,13.18
2018-06-05T11:33:16.005Z,12.43
2018-06-05T11:35:49.238Z,13.20
2018-06-05T11:38:19.738Z,12.43
2018-06-05T11:40:51.242Z,12.00
2018-06-05T11:43:21.108Z,12.63
2018-06-05T11:45:53.318Z,13.27
2018-06-05T11:48:26.062Z,12.27
2018-06-05T11:51:00.508Z,13.02
2018-06-05T11:53:34.961Z,13.40
2018-06-05T11:56:09.659Z,14.35
2018-06-05T11:58:44.728Z,12.85
2018-06-05T12:01:16.312Z,13.62
2018-06-05T12:03:46.235Z,13.73
2018-06-05T12:06:17.779Z,14.68
2018-06-05T12:08:49.458Z,13.70
2018-06-05T12:11:22.350Z,13.93
2018-06-05T12:13:53.970Z,13.60
2018-06-05T12:16:27.430Z,14.60
2018-06-05T12:19:00.565Z,13.57
2018-06-05T12:21:30.941Z,14.00
2018-06-05T12:24:05.467Z,12.88
2018-06-05T12:26:38.002Z,12.93
2018-06-05T12:29:11.189Z,13.70
2018-06-05T12:31:42.640Z,13.27
2018-06-05T12:34:15.652Z,14.35
2018-06-05T12:36:48.501Z,12.27
2018-06-05T12:39:20.063Z,14.45
2018-06-05T12:41:51.422Z,14.30
2018-06-05T12:44:25.861Z,12.48
2018-06-05T12:46:58.802Z,14.55
2018-06-05T12:49:31.649Z,14.70
2018-06-05T12:52:02.975Z,14.80
2018-06-05T12:54:34.386Z,13.88
2018-06-05T12:57:04.944Z,14.57
2018-06-05T12:59:36.284Z,16.12
2018-06-05T13:02:09.176Z,16.37
2018-06-05T13:04:40.575Z,16.67
2018-06-05T13:07:12.193Z,15.65
2018-06-05T13:09:45.014Z,15.48
2018-06-05T13:12:16.739Z,15.25
2018-06-05T13:14:51.089Z,16.92
2018-06-05T13:17:22.399Z,15.43
2018-06-05T13:19:53.830Z,16.12
2018-06-05T13:22:25.359Z,15.40
2018-06-05T13:24:56.835Z,17.62
2018-06-05T13:27:26.749Z,16.25
2018-06-05T13:29:58.645Z,15.95
2018-06-05T13:32:32.888Z,16.45
2018-06-05T13:35:04.833Z,17.92
2018-06-05T13:37:34.815Z,16.98
2018-06-05T13:40:06.191Z,17.35
2018-06-05T13:42:39.235Z,17.00
2018-06-05T13:45:13.507Z,16.77
2018-06-05T13:47:46.625Z,17.40
2018-06-05T13:50:17.977Z,17.98
2018-06-05T13:52:50.803Z,16.73
2018-06-05T13:55:22.934Z,16.40
2018-06-05T13:57:57.288Z,20.30
2018-06-05T14:00:30.376Z,18.27
2018-06-05T14:03:01.919Z,18.20
2018-06-05T14:05:36.102Z,20.30
2018-06-05T14:08:08.187Z,17.35
2018-06-05T14:10:38.073Z,16.23
2018-06-05T14:13:09.494Z,17.17
2018-06-05T14:15:42.371Z,18.65
2018-06-05T14:18:12.326Z,19.17
2018-06-05T14:20:43.912Z,18.17
2018-06-05T14:23:13.694Z,18.15
2018-06-05T14:25:46.773Z,18.73
2018-06-05T14:28:19.764Z,18.15
2018-06-05T14:30:51.219Z,18.37
2018-06-05T14:33:24.175Z,18.15
2018-06-05T14:35:56.396Z,15.10
2018-06-05T14:38:26.288Z,17.85
2018-06-05T14:40:57.810Z,18.95
2018-06-05T14:43:27.687Z,16.85
2018-06-05T14:45:59.159Z,17.40
2018-06-05T14:48:32.015Z,17.58
2018-06-05T14:51:04.873Z,17.75
2018-06-05T14:53:35.295Z,17.40
2018-06-05T14:56:06.702Z,16.73
2018-06-05T14:58:40.296Z,18.48
2018-06-05T15:01:11.028Z,19.30
2018-06-05T15:03:42.710Z,17.23
2018-06-05T15:06:17.202Z,18.73
2018-06-05T15:08:50.070Z,19.42
2018-06-05T15:11:19.995Z,19.20
2018-06-05T15:13:49.883Z,18.65
2018-06-05T15:16:24.473Z,20.00
2018-06-05T15:18:57.876Z,20.00
2018-06-05T15:21:29.852Z,20.15
2018-06-05T15:24:02.086Z,22.37
2018-06-05T15:26:34.960Z,17.77
2018-06-05T15:29:06.293Z,17.62
2018-06-05T15:31:38.001Z,17.95
2018-06-05T15:34:10.782Z,19.30
2018-06-05T15:36:42.069Z,18.42
2018-06-05T15:39:13.466Z,17.35
2018-06-05T15:41:44.853Z,18.60
2018-06-05T15:44:16.151Z,17.40
2018-06-05T15:46:48.981Z,16.83
2018-06-05T15:49:21.775Z,16.17
2018-06-05T15:51:53.607Z,18.30
2018-06-05T15:54:26.509Z,16.33
2018-06-05T15:57:00.884Z,16.15
2018-06-05T15:59:33.741Z,17.23
2018-06-05T16:02:05.248Z,15.45
2018-06-05T16:04:38.057Z,15.32
2018-06-05T16:07:09.925Z,14.85
2018-06-05T16:09:44.218Z,13.43
2018-06-05T16:12:16.023Z,13.77
2018-06-05T16:14:50.418Z,12.05
2018-06-05T16:17:21.802Z,14.52
2018-06-05T16:19:55.677Z,14.35
2018-06-05T16:22:28.518Z,14.23
2018-06-05T16:25:00.507Z,13.35
2018-06-05T16:27:31.622Z,14.52
2018-06-05T16:30:04.911Z,14.95
2018-06-05T16:32:36.914Z,13.32
2018-06-05T16:35:10.227Z,11.80
2018-06-05T16:37:43.286Z,14.05
2018-06-05T16:40:16.220Z,13.77
2018-06-05T16:42:47.763Z,14.20
2018-06-05T16:45:22.547Z,13.07
2018-06-05T16:47:52.387Z,12.40
2018-06-05T16:50:25.291Z,12.10
2018-06-05T16:52:59.669Z,12.80
2018-06-05T16:55:31.155Z,13.77
2018-06-05T16:58:02.514Z,13.15
2018-06-05T17:00:33.826Z,12.35
2018-06-05T17:03:05.250Z,11.75
2018-06-05T17:05:38.135Z,12.07
2018-06-05T17:08:09.879Z,11.60
2018-06-05T17:10:42.893Z,13.40
2018-06-05T17:13:17.482Z,12.52
2018-06-05T17:15:48.881Z,13.62
2018-06-05T17:18:20.433Z,11.75
2018-06-05T17:20:51.930Z,12.13
2018-06-05T17:23:24.702Z,11.95
2018-06-05T17:25:58.431Z,10.60
2018-06-05T17:28:31.264Z,11.90
2018-06-05T17:31:05.755Z,11.27
2018-06-05T17:33:37.095Z,10.25
2018-06-05T17:36:06.990Z,11.10
2018-06-05T17:38:36.930Z,11.25
2018-06-05T17:41:09.859Z,11.52
2018-06-05T17:43:41.243Z,11.60
2018-06-05T17:46:14.574Z,10.02
2018-06-05T17:48:45.373Z,9.90
2018-06-05T17:51:15.248Z,9.85
2018-06-05T17:53:48.163Z,9.35
2018-06-05T17:56:19.882Z,10.63
2018-06-05T17:58:52.858Z,9.77
2018-06-05T18:01:24.336Z,8.90
2018-06-05T18:03:57.198Z,9.63
2018-06-05T18:06:31.090Z,10.63
2018-06-05T18:09:02.528Z,9.18
2018-06-05T18:11:36.601Z,11.12
2018-06-05T18:14:11.141Z,10.32
2018-06-05T18:16:43.120Z,10.75
2018-06-05T18:19:17.225Z,11.10
2018-06-05T18:21:50.375Z,10.93
2018-06-05T18:24:21.995Z,10.68
2018-06-05T18:26:55.234Z,10.70
2018-06-05T18:29:28.311Z,9.40
2018-06-05T18:31:59.746Z,10.70
2018-06-05T18:34:31.701Z,11.07
2018-06-05T18:37:04.706Z,10.80
2018-06-05T18:39:37.773Z,11.60
2018-06-05T18:42:12.133Z,11.07
2018-06-05T18:44:44.529Z,10.63
2018-06-05T18:47:17.446Z,10.52
2018-06-05T18:49:48.096Z,11.18
2018-06-05T18:52:22.540Z,9.93
2018-06-05T18:54:56.899Z,10.63
2018-06-05T18:57:28.571Z,10.35
2018-06-05T19:00:00.156Z,10.07
2018-06-05T19:02:33.180Z,9.52
2018-06-05T19:05:06.701Z,9.27
2018-06-05T19:07:38.460Z,11.77
2018-06-05T19:10:11.999Z,8.85
2018-06-05T19:12:45.114Z,9.70
2018-06-05T19:15:16.649Z,10.88
2018-06-05T19:17:51.130Z,10.63
2018-06-05T19:20:21.063Z,13.98
2018-06-05T19:22:51.079Z,10.10
2018-06-05T19:25:24.752Z,11.75
2018-06-05T19:27:59.188Z,11.52
2018-06-05T19:30:31.947Z,11.43
2018-06-05T19:33:05.162Z,11.90
2018-06-05T19:35:37.650Z,12.05
2018-06-05T19:38:10.712Z,11.55
2018-06-05T19:40:45.508Z,11.30
2018-06-05T19:43:18.478Z,11.75
2018-06-05T19:45:50.222Z,13.43
2018-06-05T19:48:20.224Z,12.20
2018-06-05T19:50:52.657Z,13.30
2018-06-05T19:53:24.122Z,13.05
2018-06-05T19:55:55.821Z,12.60
2018-06-05T19:58:27.471Z,12.68
2018-06-05T20:00:59.165Z,12.40
2018-06-05T20:03:32.145Z,12.37
2018-06-05T20:06:03.338Z,13.35
2018-06-05T20:08:35.087Z,12.75
2018-06-05T20:11:09.586Z,14.38
2018-06-05T20:13:42.579Z,14.55
2018-06-05T20:16:17.249Z,13.52
2018-06-05T20:18:50.335Z,13.50
2018-06-05T20:21:22.021Z,14.95
2018-06-05T20:23:55.044Z,12.30
2018-06-05T20:26:28.487Z,13.20
2018-06-05T20:29:00.111Z,13.45
2018-06-05T20:31:33.332Z,14.15
2018-06-05T20:34:04.884Z,13.60
2018-06-05T20:36:38.303Z,13.40
2018-06-05T20:39:11.543Z,16.08
2018-06-05T20:41:44.492Z,13.38
2018-06-05T20:44:16.022Z,14.68
2018-06-05T20:46:46.200Z,14.05
2018-06-05T20:49:20.739Z,13.80
2018-06-05T20:51:53.753Z,14.35
2018-06-05T20:54:25.384Z,13.55
2018-06-05T20:56:56.963Z,13.27
2018-06-05T20:59:30.256Z,14.52
2018-06-05T21:02:03.300Z,13.50
2018-06-05T21:04:38.236Z,13.38
2018-06-05T21:07:09.733Z,12.60
2018-06-05T21:09:41.787Z,12.27
2018-06-05T21:12:12.382Z,14.20
2018-06-05T21:14:45.567Z,15.18
2018-06-05T21:17:18.436Z,18.07
2018-06-05T21:19:51.406Z,13.52
2018-06-05T21:22:22.889Z,14.52
2018-06-05T21:24:58.002Z,14.00
2018-06-05T21:27:29.621Z,14.35
2018-06-05T21:30:01.076Z,13.48
2018-06-05T21:32:33.317Z,12.37
2018-06-05T21:35:07.625Z,14.68
2018-06-05T21:37:41.064Z,13.98
2018-06-05T21:40:15.649Z,13.60
2018-06-05T21:42:48.773Z,14.40
2018-06-05T21:45:21.810Z,13.80
2018-06-05T21:47:51.856Z,13.82
2018-06-05T21:50:23.670Z,15.23
2018-06-05T21:52:55.841Z,13.35
2018-06-05T21:55:30.872Z,14.35
2018-06-05T21:58:02.396Z,14.25
2018-06-05T22:00:34.116Z,15.73
2018-06-05T22:03:06.917Z,14.55
2018-06-05T22:05:36.927Z,14.82
2018-06-05T22:08:09.180Z,15.15
2018-06-05T22:10:40.663Z,15.75
2018-06-05T22:13:12.499Z,16.00
2018-06-05T22:15:45.684Z,15.57
2018-06-05T22:18:16.022Z,15.13
2018-06-05T22:20:46.064Z,16.65
2018-06-05T22:23:19.448Z,16.12
2018-06-05T22:25:52.664Z,13.15
2018-06-05T22:28:24.286Z,15.85
2018-06-05T22:30:55.780Z,16.00
2018-06-05T22:33:29.486Z,16.17
2018-06-05T22:35:59.467Z,15.73
2018-06-05T22:38:31.931Z,14.95
2018-06-05T22:41:04.826Z,16.00
2018-06-05T22:43:39.408Z,14.60
2018-06-05T22:46:14.019Z,15.27
2018-06-05T22:48:47.160Z,15.05
2018-06-05T22:51:19.036Z,15.10
2018-06-05T22:53:53.530Z,16.95
2018-06-05T22:56:28.526Z,14.43
2018-06-05T22:59:01.907Z,14.63
2018-06-05T23:01:35.067Z,15.13
2018-06-05T23:04:11.176Z,15.15
2018-06-05T23:06:44.627Z,15.38
2018-06-05T23:09:19.146Z,17.05
2018-06-05T23:11:52.208Z,14.68
2018-06-05T23:14:25.229Z,15.07
2018-06-05T23:16:56.888Z,15.32
2018-06-05T23:19:30.249Z,16.77
2018-06-05T23:22:04.213Z,15.85
2018-06-05T23:24:38.919Z,16.12
2018-06-05T23:27:12.382Z,17.10
2018-06-05T23:29:45.457Z,17.08
2018-06-05T23:32:20.057Z,16.12
2018-06-05T23:34:53.352Z,17.17
2018-06-05T23:37:28.152Z,16.25
2018-06-05T23:40:02.888Z,15.50
2018-06-05T23:42:34.937Z,16.48
2018-06-05T23:45:05.672Z,19.25
2018-06-05T23:47:37.991Z,16.02
2018-06-05T23:50:08.217Z,14.45
2018-06-05T23:52:41.244Z,15.02
2018-06-05T23:55:14.303Z,16.02
2018-06-05T23:57:47.603Z,19.45
